Time;durP1;ratioP1;P1;durP2;ratioP2;P2;SDS_P1;SDS_P2;PMS_P1;PMS_P2;Temp;Humidity;BMP_temperature;BMP_pressure;BME280_temperature;BME280_humidity;BME280_pressure;Samples;Min_cycle;Max_cycle;Signal;HPM_P1;HPM_P2
2022/03/04 00:00:43;;;;;;;2.97;2.30;;;;;;;-1.02;91.54;91977.00;4939458;28;20578;-78
2022/03/04 00:03:11;;;;;;;1.90;1.87;;;;;;;-0.95;91.71;91993.44;4938873;28;20197;-78
2022/03/04 00:05:40;;;;;;;1.43;1.43;;;;;;;-1.29;91.65;91972.28;4939655;28;20324;-78
2022/03/04 00:08:08;;;;;;;1.57;1.57;;;;;;;-1.38;91.65;91962.47;4939725;28;20197;-78
2022/03/04 00:10:36;;;;;;;2.50;2.40;;;;;;;-1.09;91.32;91990.28;4939956;28;20585;-78
2022/03/04 00:13:04;;;;;;;2.03;2.03;;;;;;;-0.86;90.84;91990.88;4939977;28;20710;-79
2022/03/04 00:15:31;;;;;;;2.00;2.00;;;;;;;-0.90;89.59;91985.94;4938886;28;20556;-78
2022/03/04 00:17:58;;;;;;;2.93;2.83;;;;;;;-0.98;88.86;91958.78;4939534;28;20474;-78
2022/03/04 00:20:26;;;;;;;1.77;1.67;;;;;;;-0.63;88.46;92015.44;4941293;28;20586;-78
2022/03/04 00:22:55;;;;;;;2.93;2.73;;;;;;;-0.60;88.76;92002.97;4947386;28;20490;-78
2022/03/04 00:25:22;;;;;;;2.43;2.33;;;;;;;-0.58;89.07;91998.84;4938939;28;20528;-78
2022/03/04 00:27:49;;;;;;;2.07;2.07;;;;;;;-0.90;89.93;91986.75;4938892;28;20574;-79
2022/03/04 00:30:17;;;;;;;2.90;2.80;;;;;;;-1.06;90.57;91990.25;4939221;28;20643;-78
2022/03/04 00:32:44;;;;;;;1.83;1.73;;;;;;;-1.25;91.01;91983.84;4939096;28;20506;-78
2022/03/04 00:35:13;;;;;;;8.73;1.60;;;;;;;-1.31;91.90;91988.84;4939136;28;20589;-78
2022/03/04 00:37:41;;;;;;;1.67;1.67;;;;;;;-1.34;92.27;91994.63;4939058;28;20597;-78
2022/03/04 00:40:14;;;;;;;1.27;1.27;;;;;;;-1.48;92.25;91985.69;4938932;28;20609;-78
2022/03/04 00:42:41;;;;;;;0.93;0.93;;;;;;;-1.55;92.43;91984.09;4939361;28;20515;-79
2022/03/04 00:45:09;;;;;;;1.73;1.73;;;;;;;-1.58;92.51;91974.22;4939127;28;20208;-78
2022/03/04 00:47:36;;;;;;;1.47;1.47;;;;;;;-1.52;91.73;91961.78;4939431;28;20559;-79
2022/03/04 00:50:06;;;;;;;1.33;1.33;;;;;;;-1.43;90.92;91959.22;4938558;28;20688;-79
2022/03/04 00:52:34;;;;;;;1.47;1.47;;;;;;;-1.46;91.18;91962.53;4938872;28;20511;-79
2022/03/04 00:55:01;;;;;;;3.27;1.50;;;;;;;-1.40;90.29;91969.09;4938622;28;20219;-79
2022/03/04 00:57:30;;;;;;;2.20;2.10;;;;;;;-1.33;90.23;91983.06;4938917;28;20485;-79
2022/03/04 00:59:57;;;;;;;6.03;2.10;;;;;;;-1.42;90.15;91964.16;4938680;28;20625;-79
2022/03/04 01:02:25;;;;;;;2.37;2.33;;;;;;;-1.22;88.91;91980.50;4938314;28;20644;-79
2022/03/04 01:04:52;;;;;;;2.63;2.57;;;;;;;-1.19;88.33;91959.00;4938365;28;20236;-79
2022/03/04 01:07:19;;;;;;;1.83;1.83;;;;;;;-1.02;88.10;91981.97;4938455;28;20573;-79
2022/03/04 01:09:46;;;;;;;4.17;1.90;;;;;;;-1.05;87.22;91979.50;4939006;28;20590;-79
2022/03/04 01:12:14;;;;;;;1.80;1.80;;;;;;;-1.01;87.16;91982.75;4937462;28;20578;-79
2022/03/04 01:14:42;;;;;;;1.60;1.60;;;;;;;-1.03;86.52;91980.31;4938550;28;20589;-79
2022/03/04 01:17:09;;;;;;;2.33;2.23;;;;;;;-1.45;87.45;91933.63;4938415;28;20267;-79
2022/03/04 01:19:37;;;;;;;2.20;2.10;;;;;;;-1.41;89.58;91970.75;4937934;28;20578;-79
2022/03/04 01:22:04;;;;;;;2.10;1.57;;;;;;;-1.43;89.80;91954.28;4938182;28;20676;-78
2022/03/04 01:24:31;;;;;;;2.80;2.70;;;;;;;-1.34;88.14;91957.47;4938247;28;20574;-78
2022/03/04 01:26:59;;;;;;;2.50;2.00;;;;;;;-1.31;88.66;91966.53;4918810;28;20637;-78
2022/03/04 01:29:26;;;;;;;1.33;1.33;;;;;;;-1.50;88.32;91977.44;4918983;28;20491;-79
2022/03/04 01:31:54;;;;;;;5.40;1.70;;;;;;;-1.70;88.56;91956.16;4938856;28;20582;-79
2022/03/04 01:34:22;;;;;;;1.30;1.30;;;;;;;-1.96;89.29;91930.78;4938500;28;20250;-79
2022/03/04 01:36:49;;;;;;;1.20;1.20;;;;;;;-1.76;89.35;91965.28;4937948;28;20687;-79
2022/03/04 01:39:16;;;;;;;2.33;2.33;;;;;;;-1.83;89.28;91936.44;4939037;28;20549;-79
2022/03/04 01:41:43;;;;;;;2.13;2.13;;;;;;;-1.92;90.35;91929.94;4937817;28;20570;-79
2022/03/04 01:44:11;;;;;;;1.63;1.63;;;;;;;-1.98;88.95;91902.75;4937364;28;20597;-81
2022/03/04 01:46:38;;;;;;;8.20;1.30;;;;;;;-1.75;88.54;91934.75;4937633;28;20574;-79
2022/03/04 01:49:07;;;;;;;5.63;2.10;;;;;;;-1.72;89.80;91957.00;4937959;28;20512;-79
2022/03/04 01:51:34;;;;;;;1.33;1.33;;;;;;;-1.88;89.99;91957.94;4937820;28;20632;-79
2022/03/04 01:54:01;;;;;;;1.40;1.40;;;;;;;-2.18;90.11;91925.16;4937838;28;20213;-79
2022/03/04 01:56:29;;;;;;;1.13;1.13;;;;;;;-2.12;91.28;91939.13;4937936;28;20527;-80
2022/03/04 01:58:56;;;;;;;1.77;1.77;;;;;;;-2.27;91.42;91902.97;4937688;28;20473;-79
2022/03/04 02:01:23;;;;;;;1.97;1.97;;;;;;;-2.13;91.38;91925.13;4937486;28;20523;-79
2022/03/04 02:03:50;;;;;;;1.10;1.10;;;;;;;-2.04;91.32;91929.19;4937258;28;20660;-79
2022/03/04 02:06:19;;;;;;;0.97;0.97;;;;;;;-2.11;90.42;91928.41;4937782;28;20639;-79
2022/03/04 02:08:46;;;;;;;1.10;1.10;;;;;;;-2.52;91.17;91876.75;4938073;28;20502;-79
2022/03/04 02:11:14;;;;;;;6.33;1.77;;;;;;;-2.35;91.61;91892.28;4940490;28;20244;-79
2022/03/04 02:13:42;;;;;;;1.07;1.07;;;;;;;-2.18;91.41;91924.34;4936980;28;20496;-79
2022/03/04 02:16:15;;;;;;;1.07;1.03;;;;;;;-2.45;90.44;91870.94;4936956;28;20576;-80
2022/03/04 02:18:42;;;;;;;1.00;1.00;;;;;;;-2.32;90.78;91891.47;4919194;28;20450;-81
2022/03/04 02:21:11;;;;;;;17.90;1.57;;;;;;;-2.21;91.28;91921.91;4932955;28;20507;-80
2022/03/04 02:23:40;;;;;;;1.57;1.57;;;;;;;-2.07;91.27;91915.19;4937018;28;20577;-79
2022/03/04 02:26:07;;;;;;;1.13;1.10;;;;;;;-2.35;90.51;91860.16;4936772;28;20584;-80
2022/03/04 02:28:34;;;;;;;1.67;1.67;;;;;;;-1.97;89.93;91906.84;4937068;28;20655;-80
2022/03/04 02:31:02;;;;;;;0.90;0.90;;;;;;;-1.87;89.33;91920.81;4937200;28;20581;-80
2022/03/04 02:33:29;;;;;;;1.10;1.10;;;;;;;-1.99;89.42;91915.13;4938513;28;20552;-79
2022/03/04 02:35:56;;;;;;;1.67;1.67;;;;;;;-2.18;88.97;91873.22;4937160;28;20636;-80
2022/03/04 02:38:23;;;;;;;1.13;1.13;;;;;;;-2.13;89.11;91888.00;4936897;28;20573;-80
2022/03/04 02:40:52;;;;;;;1.10;1.10;;;;;;;-2.11;89.27;91924.28;4936887;28;20205;-81
2022/03/04 02:43:20;;;;;;;1.20;1.20;;;;;;;-2.11;90.21;91923.47;4936664;28;20600;-80
2022/03/04 02:45:47;;;;;;;0.93;0.93;;;;;;;-1.90;88.95;91929.91;4937945;28;20592;-80
2022/03/04 02:48:14;;;;;;;1.27;1.27;;;;;;;-1.80;88.88;91932.28;4937029;28;20200;-80
2022/03/04 02:50:41;;;;;;;1.53;1.53;;;;;;;-1.78;87.63;91927.34;4937588;28;20201;-81
2022/03/04 02:53:09;;;;;;;1.53;1.43;;;;;;;-1.72;87.99;91922.34;4937146;28;20607;-81
2022/03/04 02:55:36;;;;;;;3.13;2.53;;;;;;;-1.65;87.55;91936.31;4937377;28;20474;-81
2022/03/04 02:58:05;;;;;;;2.90;2.80;;;;;;;-1.63;87.09;91936.31;4937041;28;20197;-81
2022/03/04 03:00:33;;;;;;;7.87;2.60;;;;;;;-1.67;87.23;91933.00;4936529;28;20566;-81
2022/03/04 03:03:01;;;;;;;3.17;2.97;;;;;;;-2.01;86.74;91894.53;4937617;28;20572;-81
2022/03/04 03:05:28;;;;;;;2.70;2.70;;;;;;;-1.75;86.49;91947.91;4936772;28;20506;-80
2022/03/04 03:07:55;;;;;;;2.17;2.07;;;;;;;-1.78;87.52;91943.00;4937271;28;20531;-81
2022/03/04 03:10:22;;;;;;;3.93;3.57;;;;;;;-1.91;87.76;91934.03;4936928;28;20593;-81
2022/03/04 03:12:49;;;;;;;2.87;2.77;;;;;;;-2.29;87.78;91887.31;4936720;28;20660;-81
2022/03/04 03:15:19;;;;;;;1.97;1.97;;;;;;;-2.16;88.47;91910.31;4936967;28;20566;-82
2022/03/04 03:17:46;;;;;;;2.87;2.73;;;;;;;-2.55;90.54;91882.56;4936951;28;20556;-81
2022/03/04 03:20:13;;;;;;;1.40;1.40;;;;;;;-2.35;91.17;91931.03;4936817;28;20611;-81
2022/03/04 03:22:41;;;;;;;18.87;5.47;;;;;;;-2.44;92.09;91928.63;4936430;28;20668;-81
2022/03/04 03:25:09;;;;;;;9.67;4.23;;;;;;;-2.54;93.20;91922.94;4936735;28;20327;-81
2022/03/04 03:27:36;;;;;;;2.23;2.13;;;;;;;-2.44;93.30;91929.47;4936649;28;20596;-81
2022/03/04 03:30:05;;;;;;;3.03;2.90;;;;;;;-2.37;91.67;91920.34;4936584;28;20653;-81
2022/03/04 03:32:34;;;;;;;1.77;1.77;;;;;;;-2.24;91.35;91926.84;4917824;28;20597;-82
2022/03/04 03:35:02;;;;;;;3.00;2.80;;;;;;;-2.25;90.80;91925.19;4917819;28;20567;-81
2022/03/04 03:37:29;;;;;;;1.90;1.90;;;;;;;-2.33;91.87;91920.31;4927010;28;20232;-81
2022/03/04 03:39:56;;;;;;;1.87;1.80;;;;;;;-2.57;92.14;91894.09;4938534;28;20196;-81
2022/03/04 03:42:23;;;;;;;2.27;2.17;;;;;;;-2.35;92.08;91926.09;4940033;28;20329;-82
2022/03/04 03:44:51;;;;;;;2.27;2.17;;;;;;;-2.25;90.40;91942.50;4940053;28;20196;-81
2022/03/04 03:47:18;;;;;;;2.07;2.00;;;;;;;-2.41;89.25;91912.13;4940278;28;20573;-81
2022/03/04 03:49:47;;;;;;;1.67;1.67;;;;;;;-2.31;89.90;91943.38;4939482;28;20580;-81
2022/03/04 03:52:14;;;;;;;1.90;1.90;;;;;;;-2.57;90.68;91941.06;4939240;28;20582;-81
2022/03/04 03:54:41;;;;;;;1.47;1.47;;;;;;;-2.75;91.16;91927.97;4939841;28;20616;-81
2022/03/04 03:57:10;;;;;;;2.77;2.70;;;;;;;-2.88;91.46;91919.81;4939975;28;20556;-82
2022/03/04 03:59:37;;;;;;;2.47;2.20;;;;;;;-2.57;90.75;91950.13;4939253;28;20578;-81
2022/03/04 04:02:05;;;;;;;3.63;3.53;;;;;;;-2.52;89.75;91936.91;4939745;28;20259;-81
2022/03/04 04:04:34;;;;;;;5.60;2.50;;;;;;;-2.82;89.94;91919.78;4939646;28;20585;-81
2022/03/04 04:07:04;;;;;;;3.33;3.20;;;;;;;-3.15;90.97;91890.25;4939322;28;20565;-81
2022/03/04 04:09:31;;;;;;;3.50;2.60;;;;;;;-2.95;91.72;91926.41;4939398;28;20588;-82
2022/03/04 04:11:59;;;;;;;1.93;1.93;;;;;;;-2.79;91.08;91928.81;4939908;28;20232;-81
2022/03/04 04:14:27;;;;;;;1.87;1.87;;;;;;;-2.98;91.37;91908.28;4939077;28;20233;-81
2022/03/04 04:16:54;;;;;;;1.80;1.80;;;;;;;-3.05;91.45;91910.00;4939303;28;20551;-81
2022/03/04 04:19:22;;;;;;;2.57;2.50;;;;;;;-2.93;92.22;91937.09;4938756;28;20617;-81
2022/03/04 04:21:49;;;;;;;3.33;3.23;;;;;;;-3.46;92.28;91838.53;4939521;28;20594;-81
2022/03/04 04:24:19;;;;;;;2.10;2.10;;;;;;;-2.65;90.57;91941.94;4946916;28;20479;-81
2022/03/04 04:26:46;;;;;;;2.80;2.70;;;;;;;-2.70;90.60;91944.41;4939387;28;20585;-81
2022/03/04 04:29:14;;;;;;;2.20;2.10;;;;;;;-2.84;91.22;91940.38;4939355;28;20641;-80
2022/03/04 04:31:41;;;;;;;2.00;1.90;;;;;;;-2.96;91.36;91938.78;4939286;28;20218;-81
2022/03/04 04:34:09;;;;;;;1.80;1.70;;;;;;;-3.11;91.80;91910.03;4939247;28;20669;-81
2022/03/04 04:36:36;;;;;;;3.97;3.87;;;;;;;-2.73;90.29;91946.91;4939313;28;20543;-81
2022/03/04 04:39:04;;;;;;;2.70;2.60;;;;;;;-3.03;90.70;91908.31;4939208;28;20217;-80
2022/03/04 04:41:34;;;;;;;4.17;3.97;;;;;;;-3.12;91.33;91912.47;4938852;28;20543;-81
2022/03/04 04:44:01;;;;;;;1.90;1.90;;;;;;;-2.90;90.82;91920.63;4938694;28;20561;-81
2022/03/04 04:46:29;;;;;;;2.83;2.63;;;;;;;-2.91;91.05;91900.03;4938890;28;20582;-81
2022/03/04 04:48:56;;;;;;;2.47;2.37;;;;;;;-2.71;90.92;91935.38;4939238;28;20565;-80
2022/03/04 04:51:23;;;;;;;2.33;2.27;;;;;;;-2.78;91.11;91947.75;4938694;28;20197;-80
2022/03/04 04:53:52;;;;;;;2.80;2.73;;;;;;;-2.81;91.67;91938.69;4938504;28;20594;-80
2022/03/04 04:56:19;;;;;;;1.60;1.60;;;;;;;-2.67;90.16;91941.13;4938739;28;20195;-81
2022/03/04 04:58:48;;;;;;;1.67;1.63;;;;;;;-2.64;88.76;91929.56;4938558;28;20464;-81
2022/03/04 05:01:16;;;;;;;2.83;2.43;;;;;;;-2.84;88.14;91898.38;4938767;28;20482;-81
2022/03/04 05:03:43;;;;;;;1.90;1.80;;;;;;;-2.98;89.56;91886.06;4939373;28;20523;-82
2022/03/04 05:06:11;;;;;;;4.80;3.43;;;;;;;-2.73;89.55;91936.19;4939716;28;20597;-81
2022/03/04 05:08:38;;;;;;;2.83;2.73;;;;;;;-2.67;89.81;91943.59;4958375;28;20588;-82
2022/03/04 05:11:05;;;;;;;4.43;3.97;;;;;;;-3.30;90.92;91868.91;4958175;28;20620;-81
2022/03/04 05:13:33;;;;;;;4.73;2.70;;;;;;;-2.80;91.34;91939.53;4958963;28;20658;-81
2022/03/04 05:16:01;;;;;;;20.30;16.00;;;;;;;-2.93;90.75;91923.94;4957980;28;20571;-81
2022/03/04 05:18:28;;;;;;;34.93;14.53;;;;;;;-2.57;89.16;91960.84;4957591;28;20487;-81
2022/03/04 05:20:56;;;;;;;5.23;4.90;;;;;;;-2.77;89.85;91939.53;4956646;28;20589;-81
2022/03/04 05:26:09;;;;;;;3.23;2.93;;;;;;;-3.11;90.81;91895.19;4941284;28;20649;-82
2022/03/04 05:28:39;;;;;;;2.00;2.00;;;;;;;-2.66;90.45;91958.41;4931967;28;20709;-79
2022/03/04 05:31:07;;;;;;;2.77;2.67;;;;;;;-2.35;88.51;91968.13;4932676;28;20508;-78
2022/03/04 05:33:37;;;;;;;2.67;2.57;;;;;;;-2.14;86.10;91972.97;4933470;28;20223;-78
2022/03/04 05:36:05;;;;;;;4.03;3.93;;;;;;;-2.00;85.86;91978.66;4934950;28;20299;-82
2022/03/04 05:38:32;;;;;;;6.83;4.07;;;;;;;-2.39;87.45;91936.84;4935344;28;20544;-83
2022/03/04 05:40:59;;;;;;;3.57;3.47;;;;;;;-2.67;88.58;91912.28;4934804;28;20271;-83
2022/03/04 05:43:27;;;;;;;4.13;4.00;;;;;;;-2.26;88.03;91960.69;4934695;28;20739;-83
2022/03/04 05:45:54;;;;;;;2.80;2.70;;;;;;;-2.29;88.72;91960.69;4935132;28;20609;-80
2022/03/04 05:48:23;;;;;;;4.50;4.27;;;;;;;-2.13;87.35;91972.94;4938052;28;20275;-81
2022/03/04 05:50:50;;;;;;;8.67;7.83;;;;;;;-2.33;86.71;91942.59;4935095;28;20593;-82
2022/03/04 05:53:17;;;;;;;12.33;11.53;;;;;;;-2.14;86.68;91971.31;4934959;28;20549;-83
2022/03/04 05:55:44;;;;;;;13.80;12.60;;;;;;;-2.28;87.17;91954.91;4933337;28;20574;-81
2022/03/04 05:58:12;;;;;;;17.30;12.47;;;;;;;-2.28;87.21;91962.34;4931885;28;20493;-82
2022/03/04 06:00:39;;;;;;;14.07;12.53;;;;;;;-2.37;87.63;91965.69;4934917;28;20615;-83
2022/03/04 06:03:07;;;;;;;12.20;11.20;;;;;;;-2.29;89.13;91970.56;4933315;28;20604;-83
2022/03/04 06:05:39;;;;;;;11.43;10.83;;;;;;;-2.38;88.53;91958.28;4932368;28;20209;-83
2022/03/04 06:08:06;;;;;;;14.43;12.20;;;;;;;-2.27;88.85;91977.16;4933388;28;20592;-83
2022/03/04 06:10:33;;;;;;;17.77;12.50;;;;;;;-2.23;89.17;91970.53;4935419;28;20208;-82
2022/03/04 06:13:01;;;;;;;10.80;9.63;;;;;;;-2.45;88.28;91924.50;4934612;28;20345;-83
2022/03/04 06:15:28;;;;;;;10.30;9.37;;;;;;;-2.57;88.58;91908.09;4934838;28;20585;-81
2022/03/04 06:17:55;;;;;;;9.73;9.10;;;;;;;-2.10;89.18;91972.94;4940456;28;20570;-83
2022/03/04 06:20:25;;;;;;;13.33;11.27;;;;;;;-2.52;89.16;91902.28;4935775;28;20626;-81
2022/03/04 06:22:54;;;;;;;13.30;12.37;;;;;;;-1.96;89.12;91977.78;4932673;28;20500;-82
2022/03/04 06:25:21;;;;;;;10.70;9.83;;;;;;;-2.26;88.16;91931.00;4935399;28;20497;-84
2022/03/04 06:27:54;;;;;;;8.20;7.60;;;;;;;-1.88;87.87;91988.47;4935185;28;20223;-82
2022/03/04 06:30:23;;;;;;;11.70;10.23;;;;;;;-1.89;88.20;91976.09;4932682;28;20539;-82
2022/03/04 06:32:51;;;;;;;10.03;9.20;;;;;;;-1.82;88.74;91976.06;4934988;28;20235;-80
2022/03/04 06:35:19;;;;;;;9.70;8.90;;;;;;;-1.85;87.93;91960.38;4938235;28;20654;-82
2022/03/04 06:37:46;;;;;;;18.90;9.33;;;;;;;-1.78;87.87;91952.91;4935123;28;20508;-83
2022/03/04 06:40:15;;;;;;;7.10;5.37;;;;;;;-1.52;87.42;91979.13;4934069;28;20667;-82
2022/03/04 06:42:45;;;;;;;5.40;5.17;;;;;;;-1.47;87.50;91974.94;4934406;28;20673;-82
2022/03/04 06:45:13;;;;;;;7.50;5.40;;;;;;;-1.30;86.76;91986.38;4933667;28;20589;-82
2022/03/04 06:47:41;;;;;;;5.93;4.97;;;;;;;-1.54;85.93;91936.22;4935872;28;20668;-83
2022/03/04 06:50:08;;;;;;;5.30;4.90;;;;;;;-1.20;85.42;91979.66;4935738;28;20223;-82
2022/03/04 06:52:36;;;;;;;7.77;7.17;;;;;;;-1.31;85.45;91959.94;4936703;28;20481;-83
2022/03/04 06:55:04;;;;;;;9.97;6.90;;;;;;;-1.08;84.47;91981.19;4932916;28;20478;-82
2022/03/04 06:57:32;;;;;;;8.23;7.90;;;;;;;-1.02;84.34;91981.97;4933904;28;20602;-81
2022/03/04 07:00:02;;;;;;;10.43;9.57;;;;;;;-1.01;84.18;91986.06;4935108;28;20504;-83
2022/03/04 07:02:30;;;;;;;6.07;5.67;;;;;;;-1.14;83.96;91959.78;4935234;28;20554;-81
2022/03/04 07:04:57;;;;;;;7.17;6.70;;;;;;;-1.01;83.32;91968.72;4934306;28;20597;-82
2022/03/04 07:07:24;;;;;;;6.60;6.30;;;;;;;-0.92;83.05;91985.97;4935414;28;20583;-81
2022/03/04 07:09:51;;;;;;;8.23;7.60;;;;;;;-1.30;83.13;91912.03;4934866;28;20518;-82
2022/03/04 07:12:18;;;;;;;7.70;7.27;;;;;;;-0.91;82.68;91962.84;4936144;28;20296;-82
2022/03/04 07:14:48;;;;;;;17.43;10.20;;;;;;;-0.76;82.64;91968.44;4940102;28;20573;-81
2022/03/04 07:17:15;;;;;;;8.33;7.53;;;;;;;-0.71;82.08;91981.63;4938327;28;20299;-81
2022/03/04 07:19:42;;;;;;;8.17;7.43;;;;;;;-0.69;81.83;91965.91;4938844;28;20647;-82
2022/03/04 07:22:18;;;;;;;11.43;10.50;;;;;;;-0.53;81.46;91977.28;4939004;28;20536;-80
2022/03/04 07:24:46;;;;;;;12.77;11.83;;;;;;;-0.73;81.28;91938.69;4940179;28;20504;-82
2022/03/04 07:27:15;;;;;;;13.53;9.80;;;;;;;-0.54;81.28;91962.41;4938939;28;20552;-82
2022/03/04 07:29:42;;;;;;;34.83;20.00;;;;;;;-0.81;81.27;91928.03;4936030;28;20544;-81
2022/03/04 07:32:11;;;;;;;50.67;27.23;;;;;;;-0.58;81.98;91951.72;4934444;28;20223;-84
2022/03/04 07:34:38;;;;;;;19.23;15.03;;;;;;;-0.61;81.51;91938.50;4934873;28;20534;-81
2022/03/04 07:37:05;;;;;;;16.87;14.63;;;;;;;-0.46;81.30;91948.25;4935257;28;20245;-79
2022/03/04 07:39:33;;;;;;;15.03;11.60;;;;;;;-0.35;80.60;91951.41;4931398;28;20316;-81
2022/03/04 07:42:01;;;;;;;14.80;13.67;;;;;;;-0.25;80.34;91977.75;4934924;28;20601;-83
2022/03/04 07:44:36;;;;;;;15.63;14.03;;;;;;;-0.12;81.19;91968.50;4928488;28;20575;-83
2022/03/04 07:47:08;;;;;;;8.93;8.10;;;;;;;-0.54;79.63;91937.59;4929012;28;20521;-83
2022/03/04 07:49:37;;;;;;;13.13;10.93;;;;;;;-0.50;80.13;91934.22;4939812;28;20583;-82
2022/03/04 07:52:09;;;;;;;22.43;12.53;;;;;;;-0.61;80.68;91909.56;4929965;28;20658;-83
2022/03/04 07:54:37;;;;;;;24.90;9.30;;;;;;;-0.02;80.77;91960.88;4936429;28;20483;-82
2022/03/04 07:57:08;;;;;;;14.93;9.90;;;;;;;-0.40;79.08;91863.00;4931004;28;20627;-82
2022/03/04 07:59:35;;;;;;;19.17;15.67;;;;;;;-0.10;78.08;91887.34;4935741;28;20495;-82
2022/03/04 08:02:05;;;;;;;15.57;14.27;;;;;;;0.13;77.19;91911.84;4937706;28;20560;-85
2022/03/04 08:04:36;;;;;;;14.80;13.00;;;;;;;0.81;76.05;91991.06;4936650;28;20469;-86
2022/03/04 08:07:04;;;;;;;16.17;13.17;;;;;;;0.82;76.38;91976.97;4937468;28;20455;-83
2022/03/04 08:09:35;;;;;;;15.00;13.53;;;;;;;0.80;76.42;91983.63;4937875;28;20565;-84
2022/03/04 08:12:03;;;;;;;20.27;17.63;;;;;;;0.80;76.40;91976.16;4936184;28;20509;-83
2022/03/04 08:14:30;;;;;;;15.43;14.03;;;;;;;0.36;75.81;91905.66;4938235;28;20486;-83
2022/03/04 08:16:57;;;;;;;18.50;16.73;;;;;;;0.63;75.77;91923.44;4935667;28;20549;-83
2022/03/04 08:19:25;;;;;;;17.90;13.70;;;;;;;0.77;76.24;91927.34;4933197;28;20573;-83
2022/03/04 08:21:54;;;;;;;15.57;10.93;;;;;;;1.22;76.35;91970.44;4935265;28;20642;-83
2022/03/04 08:24:21;;;;;;;24.07;13.83;;;;;;;1.28;74.38;91976.16;4934662;28;20492;-83
2022/03/04 08:26:48;;;;;;;11.47;9.30;;;;;;;1.39;74.36;91971.81;4936490;28;20633;-83
2022/03/04 08:29:18;;;;;;;9.07;8.57;;;;;;;1.47;74.09;91955.84;4935673;28;20494;-81
2022/03/04 08:31:46;;;;;;;8.30;5.40;;;;;;;1.65;70.90;91994.50;4935284;28;20489;-82
2022/03/04 08:34:13;;;;;;;6.07;5.60;;;;;;;1.35;69.88;91945.34;4941060;28;20639;-82
2022/03/04 08:36:40;;;;;;;15.00;9.10;;;;;;;1.17;69.82;91901.75;4938904;28;20591;-82
2022/03/04 08:39:10;;;;;;;6.23;5.53;;;;;;;1.79;69.71;91985.09;4936691;28;20595;-82
2022/03/04 08:41:37;;;;;;;8.83;7.93;;;;;;;1.61;69.83;91936.50;4930545;28;20589;-82
2022/03/04 08:44:05;;;;;;;13.03;11.50;;;;;;;2.09;69.31;91981.97;4934795;28;20499;-81
2022/03/04 08:46:33;;;;;;;11.87;9.80;;;;;;;2.26;68.16;91989.06;4935059;28;20223;-81
2022/03/04 08:49:00;;;;;;;16.93;6.47;;;;;;;2.15;67.56;91946.13;4935741;28;20506;-83
2022/03/04 08:51:28;;;;;;;9.57;8.73;;;;;;;2.56;67.29;91969.28;4936544;28;20675;-80
2022/03/04 08:53:55;;;;;;;9.20;8.27;;;;;;;2.52;67.36;91920.38;4931915;28;20208;-82
2022/03/04 08:56:27;;;;;;;21.50;13.70;;;;;;;2.64;66.60;91900.97;4929723;28;20294;-79
2022/03/04 08:58:54;;;;;;;14.03;8.80;;;;;;;3.08;65.23;91959.69;4926444;28;21787;-79
2022/03/04 09:01:22;;;;;;;8.53;6.47;;;;;;;3.05;63.47;91936.50;4931967;28;20608;-80
2022/03/04 09:03:49;;;;;;;11.97;9.13;;;;;;;3.65;62.00;92006.47;4927005;28;20618;-79
2022/03/04 09:06:16;;;;;;;12.07;8.13;;;;;;;3.91;62.04;91995.75;4938698;28;20585;-79
2022/03/04 09:08:43;;;;;;;9.87;8.90;;;;;;;3.91;62.48;91974.09;4932424;28;20656;-81
2022/03/04 09:11:10;;;;;;;9.07;8.27;;;;;;;4.02;61.53;91976.28;4933356;28;20795;-83
2022/03/04 09:13:39;;;;;;;7.53;6.70;;;;;;;3.71;60.58;91906.41;4936016;28;20597;-80
2022/03/04 09:16:06;;;;;;;4.97;4.67;;;;;;;4.08;59.96;91961.13;4935163;28;20590;-81
2022/03/04 09:18:34;;;;;;;7.37;3.50;;;;;;;4.23;58.86;91975.66;4936158;28;20443;-82
2022/03/04 09:21:02;;;;;;;3.33;3.10;;;;;;;4.38;58.65;92004.41;4933860;28;20653;-81
2022/03/04 09:23:29;;;;;;;4.77;4.03;;;;;;;4.40;59.25;91998.47;4935602;28;20646;-82
2022/03/04 09:25:56;;;;;;;3.97;3.63;;;;;;;4.40;58.76;91995.97;4937300;28;20204;-81
2022/03/04 09:28:23;;;;;;;7.33;5.13;;;;;;;4.43;58.90;91997.59;4936714;28;20228;-82
2022/03/04 09:30:52;;;;;;;6.40;4.27;;;;;;;3.98;58.60;91913.09;4937002;28;20522;-81
2022/03/04 09:33:19;;;;;;;6.07;5.50;;;;;;;4.13;58.38;91919.31;4937938;28;20493;-79
2022/03/04 09:35:46;;;;;;;12.10;6.03;;;;;;;4.85;58.76;91991.25;4936249;28;20675;-80
2022/03/04 09:38:14;;;;;;;11.93;6.63;;;;;;;5.08;59.60;91972.19;4934629;28;20482;-82
2022/03/04 09:40:41;;;;;;;168.50;54.53;;;;;;;5.43;58.01;92000.22;4934904;28;20539;-81
2022/03/04 09:43:10;;;;;;;29.63;11.17;;;;;;;5.18;57.72;91941.81;4934824;28;20216;-80
2022/03/04 09:45:37;;;;;;;4.73;4.33;;;;;;;5.60;54.19;92014.66;4935081;28;20480;-81
2022/03/04 09:48:06;;;;;;;56.00;20.30;;;;;;;5.78;53.80;92020.75;4935079;28;20605;-78
2022/03/04 09:50:34;;;;;;;9.17;6.33;;;;;;;5.83;52.84;92021.41;4935494;28;20571;-80
2022/03/04 09:53:04;;;;;;;7.97;7.23;;;;;;;5.72;54.58;91951.63;4936275;28;20605;-79
2022/03/04 09:55:33;;;;;;;7.03;6.60;;;;;;;6.13;54.40;91997.81;4938598;28;20271;-79
2022/03/04 09:58:00;;;;;;;8.50;7.57;;;;;;;6.30;53.30;92013.94;4937753;28;20562;-80
2022/03/04 10:00:27;;;;;;;10.07;9.07;;;;;;;6.52;53.37;91994.69;4938146;28;20597;-79
2022/03/04 10:02:55;;;;;;;12.60;8.30;;;;;;;6.61;54.86;91984.31;4938214;28;20601;-78
2022/03/04 10:05:24;;;;;;;15.93;10.30;;;;;;;6.92;53.50;91994.00;4934684;28;20496;-78
2022/03/04 10:07:51;;;;;;;20.97;11.30;;;;;;;6.90;50.15;92015.81;4935598;28;20505;-78
2022/03/04 10:10:22;;;;;;;33.37;15.17;;;;;;;6.98;51.48;91989.56;4936536;28;20189;-78
2022/03/04 10:12:55;;;;;;;18.47;12.70;;;;;;;7.36;52.14;91987.19;4937420;28;20706;-77
2022/03/04 10:15:23;;;;;;;17.30;10.40;;;;;;;7.45;49.95;91980.09;4935528;28;20669;-77
2022/03/04 10:18:02;;;;;;;16.77;10.03;;;;;;;7.74;49.98;91993.97;4936673;28;20605;-76
2022/03/04 10:20:40;;;;;;;18.87;7.53;;;;;;;7.65;50.37;91973.44;4937392;28;20607;-76
2022/03/04 10:23:12;;;;;;;5.47;5.07;;;;;;;7.67;48.83;91997.59;4937373;28;20498;-75
2022/03/04 10:25:44;;;;;;;6.67;5.33;;;;;;;7.67;49.10;91996.78;4932048;28;20596;-77
2022/03/04 10:28:12;;;;;;;11.00;6.60;;;;;;;8.38;49.70;91970.25;4922029;28;20669;-77
2022/03/04 10:30:45;;;;;;;33.23;16.67;;;;;;;9.21;45.22;92016.75;4919698;28;20602;-76
2022/03/04 10:33:15;;;;;;;10.23;8.57;;;;;;;9.82;44.17;92024.69;4920643;28;20217;-76
2022/03/04 10:35:44;;;;;;;9.43;6.67;;;;;;;10.04;43.27;92024.44;4922755;28;20284;-78
2022/03/04 10:38:20;;;;;;;6.63;5.83;;;;;;;10.75;42.48;92009.84;4920139;28;20622;-77
2022/03/04 10:40:48;;;;;;;8.20;6.87;;;;;;;11.54;40.35;92026.56;4927990;28;20204;-76
2022/03/04 10:43:23;;;;;;;9.03;5.70;;;;;;;12.07;38.31;92029.47;4937300;28;20204;-76
2022/03/04 10:46:01;;;;;;;16.40;8.27;;;;;;;12.61;37.44;92027.97;4938599;28;20307;-76
2022/03/04 10:48:28;;;;;;;6.97;6.07;;;;;;;12.86;36.21;92028.94;4938639;28;20501;-77
2022/03/04 10:50:58;;;;;;;6.13;5.60;;;;;;;13.00;35.96;92024.75;4940466;28;20193;-76
2022/03/04 10:53:26;;;;;;;10.77;7.33;;;;;;;12.85;36.01;92029.03;4941520;28;20340;-76
2022/03/04 10:55:55;;;;;;;4.20;3.90;;;;;;;12.64;36.02;92010.03;4940336;28;20586;-76
2022/03/04 10:58:24;;;;;;;4.53;4.23;;;;;;;12.54;35.21;92022.47;4941092;28;20633;-75
2022/03/04 11:00:54;;;;;;;5.63;5.13;;;;;;;12.11;35.48;92005.63;4941025;28;20501;-76
2022/03/04 11:03:23;;;;;;;4.37;3.30;;;;;;;11.95;36.49;91990.50;4940538;28;20549;-76
2022/03/04 11:05:52;;;;;;;4.07;3.87;;;;;;;11.40;37.34;91985.22;4942402;28;20631;-76
2022/03/04 11:08:21;;;;;;;5.60;4.60;;;;;;;10.69;39.77;91969.75;4939919;28;20496;-76
2022/03/04 11:10:49;;;;;;;9.53;6.97;;;;;;;10.55;39.46;91967.94;4939136;28;20598;-73
2022/03/04 11:13:17;;;;;;;6.27;5.77;;;;;;;10.64;38.42;91970.00;4938669;28;20495;-73
2022/03/04 11:15:46;;;;;;;5.97;3.90;;;;;;;10.66;38.10;91952.22;4939649;28;20620;-75
2022/03/04 11:18:15;;;;;;;3.67;3.37;;;;;;;10.55;39.92;91945.22;4950574;28;20278;-74
2022/03/04 11:20:44;;;;;;;5.87;5.17;;;;;;;10.31;40.73;91937.22;4940061;28;20663;-75
2022/03/04 11:23:17;;;;;;;5.63;5.17;;;;;;;10.76;39.89;91928.09;4940414;28;20196;-75
2022/03/04 11:25:52;;;;;;;8.07;5.50;;;;;;;10.89;38.50;91951.78;4939802;28;20700;-75
2022/03/04 11:28:20;;;;;;;57.47;27.13;;;;;;;10.77;39.52;91942.34;4940482;28;20263;-75
2022/03/04 11:30:49;;;;;;;12.07;8.07;;;;;;;10.59;39.85;91938.31;4939993;28;20644;-74
2022/03/04 11:33:21;;;;;;;5.30;5.00;;;;;;;10.36;39.35;91939.53;4939630;28;20541;-75
2022/03/04 11:36:04;;;;;;;6.00;5.47;;;;;;;9.83;40.36;91929.66;4939456;28;20514;-75
2022/03/04 11:39:08;;;;;;;5.03;4.57;;;;;;;9.42;41.87;91911.56;4938982;28;20601;-75